sensor_id;sensor_type;location;lat;lon;timestamp;temperature;humidity
72602;DHT22;60644;55.858;37.390;2022-10-16T00:01:19;6.76;59.96
72602;DHT22;60644;55.858;37.390;2022-10-16T00:03:46;6.68;60.31
72602;DHT22;60644;55.858;37.390;2022-10-16T00:06:13;6.64;60.31
72602;DHT22;60644;55.858;37.390;2022-10-16T00:08:40;6.67;60.22
72602;DHT22;60644;55.858;37.390;2022-10-16T00:11:12;6.66;60.31
72602;DHT22;60644;55.858;37.390;2022-10-16T00:13:40;6.65;60.27
72602;DHT22;60644;55.858;37.390;2022-10-16T00:16:07;6.63;60.25
72602;DHT22;60644;55.858;37.390;2022-10-16T00:18:33;6.58;60.53
72602;DHT22;60644;55.858;37.390;2022-10-16T00:21:11;6.50;60.82
72602;DHT22;60644;55.858;37.390;2022-10-16T00:23:59;6.48;61.02
72602;DHT22;60644;55.858;37.390;2022-10-16T00:26:26;6.55;60.60
72602;DHT22;60644;55.858;37.390;2022-10-16T00:28:52;6.58;60.59
72602;DHT22;60644;55.858;37.390;2022-10-16T00:31:20;6.63;60.42
72602;DHT22;60644;55.858;37.390;2022-10-16T00:33:47;6.61;60.40
72602;DHT22;60644;55.858;37.390;2022-10-16T00:36:16;6.65;60.35
72602;DHT22;60644;55.858;37.390;2022-10-16T00:38:43;6.68;60.21
72602;DHT22;60644;55.858;37.390;2022-10-16T00:41:15;6.72;60.07
72602;DHT22;60644;55.858;37.390;2022-10-16T00:43:47;6.68;60.21
72602;DHT22;60644;55.858;37.390;2022-10-16T00:48:39;6.72;60.06
72602;DHT22;60644;55.858;37.390;2022-10-16T00:51:06;6.72;60.06
72602;DHT22;60644;55.858;37.390;2022-10-16T00:53:32;6.73;60.01
72602;DHT22;60644;55.858;37.390;2022-10-16T00:55:59;6.73;59.96
72602;DHT22;60644;55.858;37.390;2022-10-16T00:58:25;6.72;60.02
72602;DHT22;60644;55.858;37.390;2022-10-16T01:00:51;6.70;60.02
72602;DHT22;60644;55.858;37.390;2022-10-16T01:03:30;6.73;59.96
72602;DHT22;60644;55.858;37.390;2022-10-16T01:14:26;6.83;59.73
72602;DHT22;60644;55.858;37.390;2022-10-16T01:17:29;6.87;59.77
72602;DHT22;60644;55.858;37.390;2022-10-16T01:20:31;6.83;59.91
72602;DHT22;60644;55.858;37.390;2022-10-16T01:26:23;6.86;59.84
72602;DHT22;60644;55.858;37.390;2022-10-16T01:28:27;6.88;59.89
72602;DHT22;60644;55.858;37.390;2022-10-16T01:30:58;6.85;59.87
72602;DHT22;60644;55.858;37.390;2022-10-16T01:33:38;6.85;59.83
72602;DHT22;60644;55.858;37.390;2022-10-16T01:36:27;6.81;59.86
72602;DHT22;60644;55.858;37.390;2022-10-16T01:38:56;6.83;59.89
72602;DHT22;60644;55.858;37.390;2022-10-16T01:41:36;6.81;59.90
72602;DHT22;60644;55.858;37.390;2022-10-16T01:44:14;6.79;59.91
72602;DHT22;60644;55.858;37.390;2022-10-16T01:46:44;6.81;59.94
72602;DHT22;60644;55.858;37.390;2022-10-16T01:49:11;6.81;59.96
72602;DHT22;60644;55.858;37.390;2022-10-16T01:51:39;6.82;60.03
72602;DHT22;60644;55.858;37.390;2022-10-16T01:54:08;6.80;59.79
72602;DHT22;60644;55.858;37.390;2022-10-16T01:56:35;6.78;59.88
72602;DHT22;60644;55.858;37.390;2022-10-16T01:59:09;6.74;60.01
72602;DHT22;60644;55.858;37.390;2022-10-16T02:01:38;6.68;59.95
72602;DHT22;60644;55.858;37.390;2022-10-16T02:04:19;6.64;60.01
72602;DHT22;60644;55.858;37.390;2022-10-16T02:06:45;6.64;60.08
72602;DHT22;60644;55.858;37.390;2022-10-16T02:09:11;6.66;60.10
72602;DHT22;60644;55.858;37.390;2022-10-16T02:11:37;6.67;60.09
72602;DHT22;60644;55.858;37.390;2022-10-16T02:14:07;6.67;60.02
72602;DHT22;60644;55.858;37.390;2022-10-16T02:16:39;6.67;60.05
72602;DHT22;60644;55.858;37.390;2022-10-16T02:19:06;6.67;60.07
72602;DHT22;60644;55.858;37.390;2022-10-16T02:21:44;6.66;60.15
72602;DHT22;60644;55.858;37.390;2022-10-16T02:27:11;6.64;60.29
72602;DHT22;60644;55.858;37.390;2022-10-16T02:29:45;6.65;60.24
72602;DHT22;60644;55.858;37.390;2022-10-16T02:32:15;6.69;60.23
72602;DHT22;60644;55.858;37.390;2022-10-16T02:34:42;6.68;60.15
72602;DHT22;60644;55.858;37.390;2022-10-16T02:37:09;6.68;60.18
72602;DHT22;60644;55.858;37.390;2022-10-16T02:39:36;6.67;60.14
72602;DHT22;60644;55.858;37.390;2022-10-16T02:42:03;6.64;60.05
72602;DHT22;60644;55.858;37.390;2022-10-16T02:44:29;6.60;60.12
72602;DHT22;60644;55.858;37.390;2022-10-16T02:46:56;6.55;60.08
72602;DHT22;60644;55.858;37.390;2022-10-16T02:49:22;6.56;60.17
72602;DHT22;60644;55.858;37.390;2022-10-16T02:51:48;6.51;60.12
72602;DHT22;60644;55.858;37.390;2022-10-16T02:54:14;6.43;60.28
72602;DHT22;60644;55.858;37.390;2022-10-16T02:56:39;6.40;60.33
72602;DHT22;60644;55.858;37.390;2022-10-16T02:59:05;6.36;60.51
72602;DHT22;60644;55.858;37.390;2022-10-16T03:01:31;6.30;60.60
72602;DHT22;60644;55.858;37.390;2022-10-16T03:03:57;6.24;60.71
72602;DHT22;60644;55.858;37.390;2022-10-16T03:06:22;6.24;60.78
72602;DHT22;60644;55.858;37.390;2022-10-16T03:08:48;6.27;60.68
72602;DHT22;60644;55.858;37.390;2022-10-16T03:11:14;6.24;60.81
72602;DHT22;60644;55.858;37.390;2022-10-16T03:13:40;6.22;60.96
72602;DHT22;60644;55.858;37.390;2022-10-16T03:16:06;6.22;60.78
72602;DHT22;60644;55.858;37.390;2022-10-16T03:18:32;6.26;60.85
72602;DHT22;60644;55.858;37.390;2022-10-16T03:20:57;6.27;60.78
72602;DHT22;60644;55.858;37.390;2022-10-16T03:23:23;6.30;60.79
72602;DHT22;60644;55.858;37.390;2022-10-16T03:25:49;6.34;60.77
72602;DHT22;60644;55.858;37.390;2022-10-16T03:28:15;6.34;60.66
72602;DHT22;60644;55.858;37.390;2022-10-16T03:30:42;6.36;60.62
72602;DHT22;60644;55.858;37.390;2022-10-16T03:33:08;6.37;60.54
72602;DHT22;60644;55.858;37.390;2022-10-16T03:35:34;6.39;60.61
72602;DHT22;60644;55.858;37.390;2022-10-16T03:38:00;6.36;60.59
72602;DHT22;60644;55.858;37.390;2022-10-16T03:40:26;6.35;60.60
72602;DHT22;60644;55.858;37.390;2022-10-16T03:42:52;6.36;60.65
72602;DHT22;60644;55.858;37.390;2022-10-16T03:45:20;6.31;60.81
72602;DHT22;60644;55.858;37.390;2022-10-16T03:47:46;6.29;60.70
72602;DHT22;60644;55.858;37.390;2022-10-16T03:50:13;6.28;60.72
72602;DHT22;60644;55.858;37.390;2022-10-16T03:52:38;6.27;60.71
72602;DHT22;60644;55.858;37.390;2022-10-16T03:55:04;6.22;60.93
72602;DHT22;60644;55.858;37.390;2022-10-16T03:57:30;6.23;60.84
72602;DHT22;60644;55.858;37.390;2022-10-16T03:59:56;6.22;60.86
72602;DHT22;60644;55.858;37.390;2022-10-16T04:02:22;6.26;60.76
72602;DHT22;60644;55.858;37.390;2022-10-16T04:04:48;6.22;60.87
72602;DHT22;60644;55.858;37.390;2022-10-16T04:07:14;6.25;60.75
72602;DHT22;60644;55.858;37.390;2022-10-16T04:09:39;6.25;60.76
72602;DHT22;60644;55.858;37.390;2022-10-16T04:12:05;6.25;60.73
72602;DHT22;60644;55.858;37.390;2022-10-16T04:14:31;6.25;60.75
72602;DHT22;60644;55.858;37.390;2022-10-16T04:16:57;6.25;60.74
72602;DHT22;60644;55.858;37.390;2022-10-16T04:19:22;6.25;60.76
72602;DHT22;60644;55.858;37.390;2022-10-16T04:21:48;6.24;60.83
72602;DHT22;60644;55.858;37.390;2022-10-16T04:24:14;6.23;60.76
72602;DHT22;60644;55.858;37.390;2022-10-16T04:26:40;6.25;60.86
72602;DHT22;60644;55.858;37.390;2022-10-16T04:29:05;6.24;60.76
72602;DHT22;60644;55.858;37.390;2022-10-16T04:31:33;6.24;60.82
72602;DHT22;60644;55.858;37.390;2022-10-16T04:33:58;6.21;60.77
72602;DHT22;60644;55.858;37.390;2022-10-16T04:36:24;6.22;60.89
72602;DHT22;60644;55.858;37.390;2022-10-16T04:38:50;6.19;60.92
72602;DHT22;60644;55.858;37.390;2022-10-16T04:41:16;6.19;60.91
72602;DHT22;60644;55.858;37.390;2022-10-16T04:43:42;6.17;60.91
72602;DHT22;60644;55.858;37.390;2022-10-16T04:46:07;6.16;61.10
72602;DHT22;60644;55.858;37.390;2022-10-16T04:48:33;6.20;61.00
72602;DHT22;60644;55.858;37.390;2022-10-16T04:50:59;6.20;60.93
72602;DHT22;60644;55.858;37.390;2022-10-16T04:53:25;6.20;61.02
72602;DHT22;60644;55.858;37.390;2022-10-16T04:55:51;6.17;60.99
72602;DHT22;60644;55.858;37.390;2022-10-16T04:58:17;6.21;61.06
72602;DHT22;60644;55.858;37.390;2022-10-16T05:00:43;6.24;61.09
72602;DHT22;60644;55.858;37.390;2022-10-16T05:03:09;6.27;61.05
72602;DHT22;60644;55.858;37.390;2022-10-16T05:05:36;6.31;60.96
72602;DHT22;60644;55.858;37.390;2022-10-16T05:08:02;6.36;60.84
72602;DHT22;60644;55.858;37.390;2022-10-16T05:10:28;6.44;60.80
72602;DHT22;60644;55.858;37.390;2022-10-16T05:12:54;6.48;60.74
72602;DHT22;60644;55.858;37.390;2022-10-16T05:15:19;6.51;60.73
72602;DHT22;60644;55.858;37.390;2022-10-16T05:17:45;6.58;60.70
72602;DHT22;60644;55.858;37.390;2022-10-16T05:20:12;6.63;60.58
72602;DHT22;60644;55.858;37.390;2022-10-16T05:22:38;6.57;60.28
72602;DHT22;60644;55.858;37.390;2022-10-16T05:25:04;6.56;60.42
72602;DHT22;60644;55.858;37.390;2022-10-16T05:27:30;6.54;60.43
72602;DHT22;60644;55.858;37.390;2022-10-16T05:29:55;6.52;60.41
72602;DHT22;60644;55.858;37.390;2022-10-16T05:32:21;6.42;60.86
72602;DHT22;60644;55.858;37.390;2022-10-16T05:34:47;6.34;60.86
72602;DHT22;60644;55.858;37.390;2022-10-16T05:37:13;6.34;60.99
72602;DHT22;60644;55.858;37.390;2022-10-16T05:39:39;6.37;61.21
72602;DHT22;60644;55.858;37.390;2022-10-16T05:42:05;6.37;61.16
72602;DHT22;60644;55.858;37.390;2022-10-16T05:44:31;6.45;61.07
72602;DHT22;60644;55.858;37.390;2022-10-16T05:46:57;6.55;61.01
72602;DHT22;60644;55.858;37.390;2022-10-16T05:49:23;6.61;60.58
72602;DHT22;60644;55.858;37.390;2022-10-16T05:51:48;6.64;60.69
72602;DHT22;60644;55.858;37.390;2022-10-16T05:54:14;6.66;60.41
72602;DHT22;60644;55.858;37.390;2022-10-16T05:56:40;6.72;60.51
72602;DHT22;60644;55.858;37.390;2022-10-16T05:59:06;6.79;60.35
72602;DHT22;60644;55.858;37.390;2022-10-16T06:01:32;6.80;59.73
72602;DHT22;60644;55.858;37.390;2022-10-16T06:03:58;6.76;59.59
72602;DHT22;60644;55.858;37.390;2022-10-16T06:06:26;6.69;59.91
72602;DHT22;60644;55.858;37.390;2022-10-16T06:08:53;6.69;60.18
72602;DHT22;60644;55.858;37.390;2022-10-16T06:11:24;6.73;60.78
72602;DHT22;60644;55.858;37.390;2022-10-16T06:13:54;6.80;60.03
72602;DHT22;60644;55.858;37.390;2022-10-16T06:16:22;6.80;60.14
72602;DHT22;60644;55.858;37.390;2022-10-16T06:18:51;6.80;59.99
72602;DHT22;60644;55.858;37.390;2022-10-16T06:21:20;6.81;60.74
72602;DHT22;60644;55.858;37.390;2022-10-16T06:23:46;6.90;60.16
72602;DHT22;60644;55.858;37.390;2022-10-16T06:26:14;6.93;60.54
72602;DHT22;60644;55.858;37.390;2022-10-16T06:28:41;6.99;59.97
72602;DHT22;60644;55.858;37.390;2022-10-16T06:31:08;7.08;60.18
72602;DHT22;60644;55.858;37.390;2022-10-16T06:33:36;7.20;59.80
72602;DHT22;60644;55.858;37.390;2022-10-16T06:36:10;7.23;59.49
72602;DHT22;60644;55.858;37.390;2022-10-16T06:38:36;7.22;59.12
72602;DHT22;60644;55.858;37.390;2022-10-16T06:41:03;7.22;58.93
72602;DHT22;60644;55.858;37.390;2022-10-16T06:43:29;7.19;59.12
72602;DHT22;60644;55.858;37.390;2022-10-16T06:45:58;7.18;59.07
72602;DHT22;60644;55.858;37.390;2022-10-16T06:48:25;7.15;58.78
72602;DHT22;60644;55.858;37.390;2022-10-16T06:51:08;7.13;58.90
72602;DHT22;60644;55.858;37.390;2022-10-16T06:53:36;7.12;58.54
72602;DHT22;60644;55.858;37.390;2022-10-16T06:56:11;7.16;59.02
72602;DHT22;60644;55.858;37.390;2022-10-16T06:58:37;7.23;58.97
72602;DHT22;60644;55.858;37.390;2022-10-16T07:01:04;7.27;58.53
72602;DHT22;60644;55.858;37.390;2022-10-16T07:03:30;7.23;58.35
72602;DHT22;60644;55.858;37.390;2022-10-16T07:05:56;7.25;58.25
72602;DHT22;60644;55.858;37.390;2022-10-16T07:08:22;7.26;58.63
72602;DHT22;60644;55.858;37.390;2022-10-16T07:10:48;7.31;58.60
72602;DHT22;60644;55.858;37.390;2022-10-16T07:13:14;7.34;58.30
72602;DHT22;60644;55.858;37.390;2022-10-16T07:15:40;7.40;58.50
72602;DHT22;60644;55.858;37.390;2022-10-16T07:18:07;7.45;58.47
72602;DHT22;60644;55.858;37.390;2022-10-16T07:20:33;7.58;58.89
72602;DHT22;60644;55.858;37.390;2022-10-16T07:22:58;7.73;58.15
72602;DHT22;60644;55.858;37.390;2022-10-16T07:25:24;7.83;58.34
72602;DHT22;60644;55.858;37.390;2022-10-16T07:27:50;7.91;57.96
72602;DHT22;60644;55.858;37.390;2022-10-16T07:30:16;7.94;57.35
72602;DHT22;60644;55.858;37.390;2022-10-16T07:32:41;8.04;58.07
72602;DHT22;60644;55.858;37.390;2022-10-16T07:35:07;8.09;57.51
72602;DHT22;60644;55.858;37.390;2022-10-16T07:37:33;8.14;57.43
72602;DHT22;60644;55.858;37.390;2022-10-16T07:39:59;8.22;57.64
72602;DHT22;60644;55.858;37.390;2022-10-16T07:42:26;8.33;57.47
72602;DHT22;60644;55.858;37.390;2022-10-16T07:44:52;8.39;57.26
72602;DHT22;60644;55.858;37.390;2022-10-16T07:47:18;8.44;56.26
72602;DHT22;60644;55.858;37.390;2022-10-16T07:49:44;8.50;57.23
72602;DHT22;60644;55.858;37.390;2022-10-16T07:52:09;8.60;57.02
72602;DHT22;60644;55.858;37.390;2022-10-16T07:54:35;8.64;56.91
72602;DHT22;60644;55.858;37.390;2022-10-16T07:57:01;8.71;56.19
72602;DHT22;60644;55.858;37.390;2022-10-16T07:59:27;8.71;56.03
72602;DHT22;60644;55.858;37.390;2022-10-16T08:01:53;8.77;55.94
72602;DHT22;60644;55.858;37.390;2022-10-16T08:04:19;8.87;56.00
72602;DHT22;60644;55.858;37.390;2022-10-16T08:06:44;8.94;55.31
72602;DHT22;60644;55.858;37.390;2022-10-16T08:09:10;9.01;55.48
72602;DHT22;60644;55.858;37.390;2022-10-16T08:11:36;9.08;55.23
72602;DHT22;60644;55.858;37.390;2022-10-16T08:14:02;9.15;55.67
72602;DHT22;60644;55.858;37.390;2022-10-16T08:16:28;9.19;54.70
72602;DHT22;60644;55.858;37.390;2022-10-16T08:18:54;9.26;54.65
72602;DHT22;60644;55.858;37.390;2022-10-16T08:21:21;9.35;55.20
72602;DHT22;60644;55.858;37.390;2022-10-16T08:23:49;9.42;54.15
72602;DHT22;60644;55.858;37.390;2022-10-16T08:26:15;9.46;54.31
72602;DHT22;60644;55.858;37.390;2022-10-16T08:28:41;9.48;53.55
72602;DHT22;60644;55.858;37.390;2022-10-16T08:31:15;9.49;53.05
72602;DHT22;60644;55.858;37.390;2022-10-16T08:33:43;9.52;53.14
72602;DHT22;60644;55.858;37.390;2022-10-16T08:36:11;9.65;54.78
72602;DHT22;60644;55.858;37.390;2022-10-16T08:38:37;9.70;53.59
72602;DHT22;60644;55.858;37.390;2022-10-16T08:49:33;10.03;54.01
72602;DHT22;60644;55.858;37.390;2022-10-16T08:51:59;10.13;54.37
72602;DHT22;60644;55.858;37.390;2022-10-16T08:54:28;10.21;54.18
72602;DHT22;60644;55.858;37.390;2022-10-16T08:57:07;10.28;54.73
72602;DHT22;60644;55.858;37.390;2022-10-16T08:59:34;10.34;52.88
72602;DHT22;60644;55.858;37.390;2022-10-16T09:02:00;10.36;53.06
72602;DHT22;60644;55.858;37.390;2022-10-16T09:10:33;10.52;53.41
72602;DHT22;60644;55.858;37.390;2022-10-16T09:17:11;10.67;50.00
72602;DHT22;60644;55.858;37.390;2022-10-16T09:19:43;10.73;49.75
72602;DHT22;60644;55.858;37.390;2022-10-16T09:22:14;10.78;49.10
72602;DHT22;60644;55.858;37.390;2022-10-16T09:24:40;10.83;48.94
72602;DHT22;60644;55.858;37.390;2022-10-16T09:27:14;10.82;47.37
72602;DHT22;60644;55.858;37.390;2022-10-16T09:29:40;10.95;48.87
72602;DHT22;60644;55.858;37.390;2022-10-16T09:32:15;11.07;47.28
72602;DHT22;60644;55.858;37.390;2022-10-16T09:34:54;11.09;46.60
72602;DHT22;60644;55.858;37.390;2022-10-16T09:37:22;11.10;46.31
72602;DHT22;60644;55.858;37.390;2022-10-16T09:39:53;11.11;46.35
72602;DHT22;60644;55.858;37.390;2022-10-16T09:42:25;11.23;46.66
72602;DHT22;60644;55.858;37.390;2022-10-16T09:44:53;11.29;45.78
72602;DHT22;60644;55.858;37.390;2022-10-16T09:47:28;11.27;44.96
72602;DHT22;60644;55.858;37.390;2022-10-16T09:50:04;11.30;45.43
72602;DHT22;60644;55.858;37.390;2022-10-16T09:52:32;11.37;45.09
72602;DHT22;60644;55.858;37.390;2022-10-16T09:55:13;11.42;44.74
72602;DHT22;60644;55.858;37.390;2022-10-16T09:57:49;11.44;44.80
72602;DHT22;60644;55.858;37.390;2022-10-16T10:00:17;11.55;46.35
72602;DHT22;60644;55.858;37.390;2022-10-16T10:02:43;11.59;44.99
72602;DHT22;60644;55.858;37.390;2022-10-16T10:05:27;11.62;45.13
72602;DHT22;60644;55.858;37.390;2022-10-16T10:08:01;11.70;43.90
72602;DHT22;60644;55.858;37.390;2022-10-16T10:10:41;11.64;43.51
72602;DHT22;60644;55.858;37.390;2022-10-16T10:13:21;11.59;43.77
72602;DHT22;60644;55.858;37.390;2022-10-16T10:15:50;11.64;43.71
72602;DHT22;60644;55.858;37.390;2022-10-16T10:18:21;11.67;45.99
72602;DHT22;60644;55.858;37.390;2022-10-16T10:21:02;11.73;43.65
72602;DHT22;60644;55.858;37.390;2022-10-16T10:23:29;11.74;43.52
72602;DHT22;60644;55.858;37.390;2022-10-16T10:26:26;11.82;43.61
72602;DHT22;60644;55.858;37.390;2022-10-16T10:29:08;11.87;43.77
72602;DHT22;60644;55.858;37.390;2022-10-16T10:37:04;11.92;43.56
72602;DHT22;60644;55.858;37.390;2022-10-16T10:39:43;11.94;43.27
72602;DHT22;60644;55.858;37.390;2022-10-16T10:47:55;12.06;43.04
72602;DHT22;60644;55.858;37.390;2022-10-16T10:50:42;12.20;44.25
72602;DHT22;60644;55.858;37.390;2022-10-16T10:56:23;12.28;44.65
72602;DHT22;60644;55.858;37.390;2022-10-16T11:07:02;12.26;43.59
72602;DHT22;60644;55.858;37.390;2022-10-16T11:09:45;12.53;42.27
72602;DHT22;60644;55.858;37.390;2022-10-16T11:12:31;13.43;41.03
72602;DHT22;60644;55.858;37.390;2022-10-16T11:17:46;0.00;0.00
72602;DHT22;60644;55.858;37.390;2022-10-16T11:25:46;0.00;0.00
72602;DHT22;60644;55.858;37.390;2022-10-16T11:28:49;0.00;0.00
72602;DHT22;60644;55.858;37.390;2022-10-16T11:31:25;0.00;0.00
72602;DHT22;60644;55.858;37.390;2022-10-16T11:34:12;0.00;0.00
72602;DHT22;60644;55.858;37.390;2022-10-16T11:36:59;0.00;0.00
72602;DHT22;60644;55.858;37.390;2022-10-16T11:39:29;0.00;0.00
72602;DHT22;60644;55.858;37.390;2022-10-16T11:42:04;0.00;0.00
72602;DHT22;60644;55.858;37.390;2022-10-16T11:49:47;0.00;0.00
72602;DHT22;60644;55.858;37.390;2022-10-16T11:52:38;0.00;0.00
72602;DHT22;60644;55.858;37.390;2022-10-16T11:55:26;0.00;0.00
72602;DHT22;60644;55.858;37.390;2022-10-16T11:58:12;0.00;0.00
72602;DHT22;60644;55.858;37.390;2022-10-16T12:08:33;0.00;0.00
72602;DHT22;60644;55.858;37.390;2022-10-16T12:13:45;0.00;0.00
72602;DHT22;60644;55.858;37.390;2022-10-16T12:18:40;0.00;0.00
72602;DHT22;60644;55.858;37.390;2022-10-16T12:21:07;0.00;0.00
72602;DHT22;60644;55.858;37.390;2022-10-16T12:23:45;0.00;0.00
72602;DHT22;60644;55.858;37.390;2022-10-16T12:26:12;0.00;0.00
72602;DHT22;60644;55.858;37.390;2022-10-16T12:28:38;0.00;0.00
72602;DHT22;60644;55.858;37.390;2022-10-16T12:31:07;0.00;0.00
72602;DHT22;60644;55.858;37.390;2022-10-16T12:33:37;0.00;0.00
72602;DHT22;60644;55.858;37.390;2022-10-16T12:36:26;0.00;0.00
72602;DHT22;60644;55.858;37.390;2022-10-16T12:38:53;0.00;0.00
72602;DHT22;60644;55.858;37.390;2022-10-16T12:43:52;0.00;0.00
72602;DHT22;60644;55.858;37.390;2022-10-16T12:46:23;0.00;0.00
72602;DHT22;60644;55.858;37.390;2022-10-16T12:48:50;0.00;0.00
72602;DHT22;60644;55.858;37.390;2022-10-16T12:51:25;0.00;0.00
72602;DHT22;60644;55.858;37.390;2022-10-16T12:54:04;0.00;0.00
72602;DHT22;60644;55.858;37.390;2022-10-16T13:02:18;0.00;0.00
72602;DHT22;60644;55.858;37.390;2022-10-16T13:08:07;0.00;0.00
72602;DHT22;60644;55.858;37.390;2022-10-16T13:19:18;0.00;0.00
72602;DHT22;60644;55.858;37.390;2022-10-16T13:27:06;0.00;0.00
72602;DHT22;60644;55.858;37.390;2022-10-16T13:29:33;0.00;0.00
72602;DHT22;60644;55.858;37.390;2022-10-16T13:32:00;0.00;0.00
72602;DHT22;60644;55.858;37.390;2022-10-16T13:34:28;0.00;0.00
72602;DHT22;60644;55.858;37.390;2022-10-16T13:36:54;0.00;0.00
72602;DHT22;60644;55.858;37.390;2022-10-16T13:39:26;0.00;0.00
72602;DHT22;60644;55.858;37.390;2022-10-16T13:42:09;0.00;0.00
72602;DHT22;60644;55.858;37.390;2022-10-16T13:44:50;0.00;0.00
72602;DHT22;60644;55.858;37.390;2022-10-16T13:47:23;0.00;0.00
72602;DHT22;60644;55.858;37.390;2022-10-16T13:50:00;12.86;42.77
72602;DHT22;60644;55.858;37.390;2022-10-16T13:52:29;12.79;42.68
72602;DHT22;60644;55.858;37.390;2022-10-16T13:54:55;12.74;42.81
72602;DHT22;60644;55.858;37.390;2022-10-16T13:57:23;12.70;43.13
72602;DHT22;60644;55.858;37.390;2022-10-16T13:59:50;12.58;43.34
72602;DHT22;60644;55.858;37.390;2022-10-16T14:04:45;12.61;43.56
72602;DHT22;60644;55.858;37.390;2022-10-16T14:07:23;12.57;43.90
72602;DHT22;60644;55.858;37.390;2022-10-16T14:09:51;12.44;43.77
72602;DHT22;60644;55.858;37.390;2022-10-16T14:12:17;12.34;44.19
72602;DHT22;60644;55.858;37.390;2022-10-16T14:14:45;12.33;44.18
72602;DHT22;60644;55.858;37.390;2022-10-16T14:17:17;12.23;44.49
72602;DHT22;60644;55.858;37.390;2022-10-16T14:19:48;12.22;44.64
72602;DHT22;60644;55.858;37.390;2022-10-16T14:24:52;12.18;44.70
72602;DHT22;60644;55.858;37.390;2022-10-16T14:27:37;12.17;44.85
72602;DHT22;60644;55.858;37.390;2022-10-16T14:32:34;12.19;45.37
72602;DHT22;60644;55.858;37.390;2022-10-16T14:35:00;12.19;45.22
72602;DHT22;60644;55.858;37.390;2022-10-16T14:37:28;12.16;45.06
72602;DHT22;60644;55.858;37.390;2022-10-16T14:39:54;12.16;45.54
72602;DHT22;60644;55.858;37.390;2022-10-16T14:42:23;12.14;45.73
72602;DHT22;60644;55.858;37.390;2022-10-16T14:44:54;12.10;45.48
72602;DHT22;60644;55.858;37.390;2022-10-16T14:47:25;12.08;45.66
72602;DHT22;60644;55.858;37.390;2022-10-16T14:49:52;12.10;45.94
72602;DHT22;60644;55.858;37.390;2022-10-16T14:52:21;12.10;46.09
72602;DHT22;60644;55.858;37.390;2022-10-16T14:54:50;12.08;45.93
72602;DHT22;60644;55.858;37.390;2022-10-16T14:57:27;12.08;46.18
72602;DHT22;60644;55.858;37.390;2022-10-16T14:59:53;12.05;46.38
72602;DHT22;60644;55.858;37.390;2022-10-16T15:02:31;12.02;46.32
72602;DHT22;60644;55.858;37.390;2022-10-16T15:04:58;11.98;45.91
72602;DHT22;60644;55.858;37.390;2022-10-16T15:07:29;11.92;46.33
72602;DHT22;60644;55.858;37.390;2022-10-16T15:09:54;11.83;45.83
72602;DHT22;60644;55.858;37.390;2022-10-16T15:12:22;11.74;46.19
72602;DHT22;60644;55.858;37.390;2022-10-16T15:14:48;11.81;46.38
72602;DHT22;60644;55.858;37.390;2022-10-16T15:17:14;11.79;46.65
72602;DHT22;60644;55.858;37.390;2022-10-16T15:19:40;11.76;46.64
72602;DHT22;60644;55.858;37.390;2022-10-16T15:22:06;11.75;46.80
72602;DHT22;60644;55.858;37.390;2022-10-16T15:24:31;11.76;46.81
72602;DHT22;60644;55.858;37.390;2022-10-16T15:26:57;11.75;46.99
72602;DHT22;60644;55.858;37.390;2022-10-16T15:29:23;11.74;47.18
72602;DHT22;60644;55.858;37.390;2022-10-16T15:31:49;11.68;46.92
72602;DHT22;60644;55.858;37.390;2022-10-16T15:34:15;11.58;46.91
72602;DHT22;60644;55.858;37.390;2022-10-16T15:36:41;11.58;47.02
72602;DHT22;60644;55.858;37.390;2022-10-16T15:39:18;11.54;47.32
72602;DHT22;60644;55.858;37.390;2022-10-16T15:41:47;11.49;47.16
72602;DHT22;60644;55.858;37.390;2022-10-16T15:44:17;11.47;47.48
72602;DHT22;60644;55.858;37.390;2022-10-16T15:46:42;11.48;47.25
72602;DHT22;60644;55.858;37.390;2022-10-16T15:49:09;11.47;47.25
72602;DHT22;60644;55.858;37.390;2022-10-16T15:51:38;11.45;47.34
72602;DHT22;60644;55.858;37.390;2022-10-16T15:54:04;11.45;47.54
72602;DHT22;60644;55.858;37.390;2022-10-16T15:56:30;11.42;47.22
72602;DHT22;60644;55.858;37.390;2022-10-16T15:58:59;11.40;47.72
72602;DHT22;60644;55.858;37.390;2022-10-16T16:01:26;11.37;47.77
72602;DHT22;60644;55.858;37.390;2022-10-16T16:03:53;11.40;47.92
72602;DHT22;60644;55.858;37.390;2022-10-16T16:06:19;11.38;47.75
72602;DHT22;60644;55.858;37.390;2022-10-16T16:08:45;11.34;47.58
72602;DHT22;60644;55.858;37.390;2022-10-16T16:11:13;11.36;47.95
72602;DHT22;60644;55.858;37.390;2022-10-16T16:13:40;11.31;47.73
72602;DHT22;60644;55.858;37.390;2022-10-16T16:16:11;11.30;47.74
72602;DHT22;60644;55.858;37.390;2022-10-16T16:18:38;11.29;48.15
72602;DHT22;60644;55.858;37.390;2022-10-16T16:21:04;11.28;48.12
72602;DHT22;60644;55.858;37.390;2022-10-16T16:23:30;11.20;47.75
72602;DHT22;60644;55.858;37.390;2022-10-16T16:26:14;11.13;48.00
72602;DHT22;60644;55.858;37.390;2022-10-16T16:28:42;11.12;48.15
72602;DHT22;60644;55.858;37.390;2022-10-16T16:31:08;11.08;48.08
72602;DHT22;60644;55.858;37.390;2022-10-16T16:33:34;11.05;48.05
72602;DHT22;60644;55.858;37.390;2022-10-16T16:36:05;11.05;48.21
72602;DHT22;60644;55.858;37.390;2022-10-16T16:38:32;11.07;48.26
72602;DHT22;60644;55.858;37.390;2022-10-16T16:40:58;11.02;48.18
72602;DHT22;60644;55.858;37.390;2022-10-16T16:43:25;10.90;48.52
72602;DHT22;60644;55.858;37.390;2022-10-16T16:45:51;10.83;48.58
72602;DHT22;60644;55.858;37.390;2022-10-16T16:48:18;10.81;48.86
72602;DHT22;60644;55.858;37.390;2022-10-16T16:50:44;10.82;48.62
72602;DHT22;60644;55.858;37.390;2022-10-16T16:53:10;10.79;48.61
72602;DHT22;60644;55.858;37.390;2022-10-16T16:55:35;10.78;48.72
72602;DHT22;60644;55.858;37.390;2022-10-16T16:58:01;10.80;48.82
72602;DHT22;60644;55.858;37.390;2022-10-16T17:00:29;10.81;48.84
72602;DHT22;60644;55.858;37.390;2022-10-16T17:02:56;10.82;49.01
72602;DHT22;60644;55.858;37.390;2022-10-16T17:05:22;10.68;48.91
72602;DHT22;60644;55.858;37.390;2022-10-16T17:07:48;10.63;48.95
72602;DHT22;60644;55.858;37.390;2022-10-16T17:10:14;10.70;49.14
72602;DHT22;60644;55.858;37.390;2022-10-16T17:12:40;10.60;48.72
72602;DHT22;60644;55.858;37.390;2022-10-16T17:15:06;10.55;48.96
72602;DHT22;60644;55.858;37.390;2022-10-16T17:17:32;10.46;48.99
72602;DHT22;60644;55.858;37.390;2022-10-16T17:19:58;10.49;49.15
72602;DHT22;60644;55.858;37.390;2022-10-16T17:22:24;10.48;49.34
72602;DHT22;60644;55.858;37.390;2022-10-16T17:24:50;10.46;49.37
72602;DHT22;60644;55.858;37.390;2022-10-16T17:27:17;10.34;49.62
72602;DHT22;60644;55.858;37.390;2022-10-16T17:29:44;10.33;49.50
72602;DHT22;60644;55.858;37.390;2022-10-16T17:32:10;10.29;49.40
72602;DHT22;60644;55.858;37.390;2022-10-16T17:34:36;10.23;49.67
72602;DHT22;60644;55.858;37.390;2022-10-16T17:37:02;10.20;49.73